Time;durP1;ratioP1;P1;durP2;ratioP2;P2;SDS_P1;SDS_P2;PMS_P1;PMS_P2;Temp;Humidity;BMP_temperature;BMP_pressure;BME280_temperature;BME280_humidity;BME280_pressure;Samples;Min_cycle;Max_cycle;Signal;HPM_P1;HPM_P2
2022/01/25 00:26:19;;;;;;;80.88;37.10;;;3.40;91.10;;;;;;4992180;28;20073;-73
2022/01/25 00:29:04;;;;;;;81.47;37.63;;;3.30;91.10;;;;;;4990794;28;20044;-73
2022/01/25 00:31:30;;;;;;;87.20;39.67;;;3.40;91.20;;;;;;4991536;28;20152;-73
2022/01/25 00:33:56;;;;;;;81.95;38.17;;;3.30;91.30;;;;;;4992536;28;20480;-73
2022/01/25 00:36:24;;;;;;;84.70;39.35;;;3.30;91.40;;;;;;4992512;28;20058;-73
2022/01/25 00:38:50;;;;;;;84.03;38.75;;;3.30;91.50;;;;;;4992142;28;20030;-73
2022/01/25 00:41:16;;;;;;;89.20;40.10;;;3.30;91.40;;;;;;4992264;28;20037;-73
2022/01/25 00:43:43;;;;;;;82.40;38.80;;;3.30;91.40;;;;;;4982025;28;20446;-73
2022/01/25 00:46:11;;;;;;;80.30;39.03;;;3.30;91.40;;;;;;4989577;28;20037;-73
2022/01/25 00:54:13;;;;;;;83.05;38.15;;;3.30;91.40;;;;;;4986910;28;20497;-73
2022/01/25 00:56:45;;;;;;;87.10;38.90;;;3.30;91.50;;;;;;4991978;28;20033;-73
2022/01/25 00:59:18;;;;;;;86.25;39.88;;;3.30;91.20;;;;;;4991221;28;20030;-73
2022/01/25 01:01:45;;;;;;;89.40;39.40;;;3.30;91.50;;;;;;4986035;28;20040;-73
2022/01/25 01:04:11;;;;;;;87.13;39.67;;;3.30;91.50;;;;;;4992159;28;20258;-73
2022/01/25 01:06:38;;;;;;;82.88;39.60;;;3.30;91.50;;;;;;4987748;28;20077;-73
2022/01/25 01:09:07;;;;;;;81.05;39.40;;;3.30;91.50;;;;;;4990138;28;20057;-73
2022/01/25 01:11:39;;;;;;;87.03;40.72;;;3.30;91.50;;;;;;4991477;28;20026;-73
2022/01/25 01:14:36;;;;;;;91.10;38.35;;;3.30;91.50;;;;;;4993347;28;20541;-73
2022/01/25 01:33:25;;;;;;;83.45;37.90;;;3.30;91.00;;;;;;4992169;28;20030;-73
2022/01/25 01:39:14;;;;;;;83.47;38.67;;;3.40;90.60;;;;;;4988525;28;20045;-73
2022/01/25 01:41:50;;;;;;;;;;;3.40;90.60;;;;;;4986539;28;20043;-73
2022/01/25 01:44:24;;;;;;;76.68;37.67;;;3.40;90.70;;;;;;4992095;28;20426;-73
2022/01/25 01:49:27;;;;;;;83.80;38.55;;;3.40;90.90;;;;;;4987253;28;20381;-73
2022/01/25 01:51:53;;;;;;;82.90;39.63;;;3.40;90.70;;;;;;4990173;28;20023;-73
2022/01/25 01:54:18;;;;;;;85.10;39.45;;;3.30;90.70;;;;;;4990558;28;20056;-73
2022/01/25 01:56:44;;;;;;;84.82;39.13;;;3.40;90.90;;;;;;4986614;28;20022;-73
2022/01/25 01:59:16;;;;;;;87.82;40.45;;;3.40;90.90;;;;;;4991768;28;20137;-73
2022/01/25 02:01:45;;;;;;;91.85;40.13;;;3.40;91.00;;;;;;4983082;28;20377;-73
2022/01/25 02:04:12;;;;;;;87.03;41.30;;;3.40;91.00;;;;;;4990330;28;20188;-73
2022/01/25 02:06:38;;;;;;;86.10;39.05;;;3.40;91.20;;;;;;4991394;28;20477;-73
2022/01/25 02:09:06;;;;;;;83.15;40.33;;;3.40;91.00;;;;;;4990236;28;20022;-73
2022/01/25 02:11:32;;;;;;;82.60;38.75;;;3.40;91.00;;;;;;4990210;28;20023;-73
2022/01/25 02:14:03;;;;;;;88.35;39.80;;;3.40;90.90;;;;;;4983966;28;20409;-73
2022/01/25 02:16:42;;;;;;;87.30;38.88;;;3.40;90.90;;;;;;4988612;28;20453;-73
2022/01/25 02:24:42;;;;;;;88.85;40.58;;;3.40;91.20;;;;;;4987909;28;20432;-73
2022/01/25 02:27:07;;;;;;;83.80;39.17;;;3.30;91.10;;;;;;4989411;28;20395;-73
2022/01/25 02:29:34;;;;;;;86.15;39.58;;;3.30;91.30;;;;;;4990663;28;20041;-73
2022/01/25 02:31:59;;;;;;;84.90;40.78;;;3.30;91.40;;;;;;4989857;28;20042;-73
2022/01/25 02:34:25;;;;;;;89.35;40.90;;;3.30;91.50;;;;;;4989812;28;20037;-73
2022/01/25 02:37:03;;;;;;;82.03;40.45;;;3.30;91.50;;;;;;4990867;28;20106;-73
2022/01/25 02:39:29;;;;;;;92.15;41.80;;;3.30;91.30;;;;;;4989148;28;20042;-73
2022/01/25 02:41:55;;;;;;;92.63;42.20;;;3.40;91.20;;;;;;4986929;28;20147;-73
2022/01/25 02:44:25;;;;;;;86.22;42.13;;;3.40;91.30;;;;;;4985439;28;20085;-73
2022/01/25 02:49:33;;;;;;;87.22;41.35;;;3.40;91.50;;;;;;4989807;28;20492;-73
2022/01/25 02:52:00;;;;;;;88.38;41.22;;;3.30;91.40;;;;;;4985478;28;20068;-73
2022/01/25 02:54:26;;;;;;;91.18;42.92;;;3.40;91.40;;;;;;4988997;28;20018;-73
2022/01/25 02:56:52;;;;;;;84.07;40.17;;;3.30;91.40;;;;;;4990100;28;20033;-73
2022/01/25 02:59:19;;;;;;;98.65;43.88;;;3.30;91.40;;;;;;4984904;28;20026;-73
2022/01/25 03:01:46;;;;;;;85.15;40.22;;;3.30;91.40;;;;;;4988214;28;20120;-73
2022/01/25 03:04:14;;;;;;;99.78;43.75;;;3.30;91.40;;;;;;4988985;28;20080;-73
2022/01/25 03:06:42;;;;;;;89.97;43.70;;;3.30;91.50;;;;;;4988520;28;20373;-73
2022/01/25 03:09:08;;;;;;;96.88;43.22;;;3.30;91.50;;;;;;4988068;28;20045;-73
2022/01/25 03:11:33;;;;;;;96.57;44.58;;;3.30;91.50;;;;;;4989424;28;20031;-73
2022/01/25 03:14:02;;;;;;;88.78;42.72;;;3.30;91.50;;;;;;4988193;28;20481;-73
2022/01/25 03:17:23;;;;;;;94.47;43.88;;;3.30;91.50;;;;;;4988878;28;20026;-73
2022/01/25 03:22:17;;;;;;;91.47;42.85;;;3.30;91.60;;;;;;4986268;28;20690;-73
2022/01/25 03:24:44;;;;;;;97.15;44.30;;;3.30;91.50;;;;;;4987346;28;20037;-73
2022/01/25 03:27:09;;;;;;;99.97;45.63;;;3.30;91.70;;;;;;4988936;28;20030;-73
2022/01/25 03:29:35;;;;;;;100.40;44.65;;;3.20;91.80;;;;;;4990297;28;20555;-73
2022/01/25 03:32:01;;;;;;;97.88;46.20;;;3.20;91.70;;;;;;4987391;28;20031;-73
2022/01/25 03:34:26;;;;;;;92.57;44.55;;;3.30;91.60;;;;;;4997948;28;20057;-73
2022/01/25 03:36:51;;;;;;;97.90;45.53;;;3.30;91.60;;;;;;4988126;28;20454;-73
2022/01/25 03:39:17;;;;;;;95.63;44.80;;;3.20;91.60;;;;;;4989943;28;20038;-73
2022/01/25 03:41:42;;;;;;;97.28;45.42;;;3.20;91.70;;;;;;4988461;28;20054;-73
2022/01/25 03:44:08;;;;;;;100.70;45.08;;;3.30;91.70;;;;;;4985319;28;20027;-73
2022/01/25 03:51:44;;;;;;;96.13;45.30;;;3.20;91.80;;;;;;4987102;28;20072;-73
2022/01/25 03:54:10;;;;;;;99.45;45.63;;;3.20;91.80;;;;;;4986948;28;20412;-73
2022/01/25 03:56:36;;;;;;;99.60;45.90;;;3.20;91.80;;;;;;4986781;28;20033;-73
2022/01/25 03:59:03;;;;;;;104.10;48.00;;;3.20;91.90;;;;;;4989924;28;20080;-73
2022/01/25 04:01:30;;;;;;;95.28;46.88;;;3.20;91.90;;;;;;4989943;28;20046;-73
2022/01/25 04:04:06;;;;;;;101.70;47.00;;;3.20;91.90;;;;;;4987711;28;20029;-73
2022/01/25 04:06:33;;;;;;;89.55;43.90;;;3.20;92.00;;;;;;4986738;28;20422;-73
2022/01/25 04:09:00;;;;;;;96.97;46.08;;;3.20;91.90;;;;;;4988400;28;20053;-73
2022/01/25 04:11:26;;;;;;;104.25;46.05;;;3.20;92.00;;;;;;4987205;28;20018;-73
2022/01/25 04:13:54;;;;;;;102.10;46.25;;;3.20;92.10;;;;;;4988559;28;20049;-73
2022/01/25 04:16:26;;;;;;;101.95;45.28;;;3.20;92.10;;;;;;4988120;28;20029;-73
2022/01/25 04:19:04;;;;;;;99.63;46.35;;;3.20;92.20;;;;;;4989276;28;20113;-73
2022/01/25 04:26:42;;;;;;;103.57;47.20;;;3.20;92.20;;;;;;4998778;28;20590;-73
2022/01/25 04:29:09;;;;;;;96.38;44.63;;;3.10;92.00;;;;;;4989236;28;20448;-73
2022/01/25 04:31:35;;;;;;;108.40;48.13;;;3.20;92.00;;;;;;4990989;28;20042;-73
2022/01/25 04:50:06;;;;;;;113.15;46.88;;;3.20;92.30;;;;;;4983016;28;20041;-73
2022/01/25 04:52:39;;;;;;;97.95;45.97;;;3.20;92.30;;;;;;4998713;28;20378;-73
2022/01/25 04:55:25;;;;;;;102.63;47.80;;;3.20;92.30;;;;;;4990951;28;20038;-73
2022/01/25 04:57:58;;;;;;;99.20;47.78;;;3.20;92.20;;;;;;4992515;28;20034;-72
2022/01/25 05:00:25;;;;;;;102.85;46.17;;;3.10;92.20;;;;;;4991158;28;20125;-73
2022/01/25 05:03:07;;;;;;;102.82;47.55;;;3.20;92.10;;;;;;4991281;28;20033;-73
2022/01/25 05:05:38;;;;;;;100.68;47.28;;;3.20;92.10;;;;;;4990302;28;20032;-73
2022/01/25 05:10:37;;;;;;;103.35;47.88;;;3.20;92.30;;;;;;4986910;28;20030;-73
2022/01/25 05:13:18;;;;;;;96.13;47.17;;;3.20;92.30;;;;;;4988277;28;20027;-72
2022/01/25 05:18:25;;;;;;;104.40;47.05;;;3.20;92.30;;;;;;4996841;28;20038;-73
2022/01/25 05:23:34;;;;;;;100.50;46.30;;;3.20;92.50;;;;;;4991336;28;20295;-73
2022/01/25 05:26:01;;;;;;;106.35;48.60;;;3.20;92.50;;;;;;4991407;28;20026;-73
2022/01/25 05:28:26;;;;;;;103.63;48.50;;;3.20;92.50;;;;;;4981934;28;20066;-74
2022/01/25 05:30:52;;;;;;;101.47;46.13;;;3.20;92.60;;;;;;4992794;28;20049;-75
2022/01/25 05:33:17;;;;;;;105.10;48.55;;;3.20;92.70;;;;;;5000029;28;20433;-75
2022/01/25 05:35:43;;;;;;;107.55;48.47;;;3.10;92.70;;;;;;4992341;28;20084;-75
2022/01/25 05:38:08;;;;;;;104.70;47.47;;;3.20;92.70;;;;;;4990195;28;20030;-75
2022/01/25 05:40:44;;;;;;;101.93;46.80;;;3.10;92.60;;;;;;4980614;28;20066;-75
2022/01/25 05:45:58;;;;;;;97.93;46.67;;;3.20;92.80;;;;;;4977207;28;20117;-75
2022/01/25 05:48:25;;;;;;;99.80;45.92;;;3.10;92.80;;;;;;4977900;28;20038;-75
2022/01/25 05:50:51;;;;;;;101.38;46.33;;;3.10;92.90;;;;;;4992408;28;20030;-75
2022/01/25 05:53:17;;;;;;;104.57;47.45;;;3.10;93.10;;;;;;4991544;28;20488;-75
2022/01/25 05:55:42;;;;;;;107.38;48.97;;;3.10;93.20;;;;;;5002160;28;20046;-75
2022/01/25 05:58:08;;;;;;;110.80;47.90;;;3.10;93.20;;;;;;4990599;28;20386;-75
2022/01/25 06:00:33;;;;;;;109.40;47.85;;;3.10;93.30;;;;;;4990468;28;20030;-75
2022/01/25 06:03:01;;;;;;;111.85;47.88;;;3.10;93.40;;;;;;4992027;28;20034;-75
2022/01/25 06:05:27;;;;;;;108.53;48.00;;;3.10;93.50;;;;;;4984124;28;20014;-75
2022/01/25 06:07:52;;;;;;;113.75;48.25;;;3.10;93.60;;;;;;4986307;28;20030;-75
2022/01/25 06:10:18;;;;;;;112.63;48.35;;;3.10;93.70;;;;;;4990491;28;20100;-75
2022/01/25 06:12:45;;;;;;;110.43;48.88;;;3.10;93.80;;;;;;4987458;28;20507;-75
2022/01/25 06:15:11;;;;;;;108.95;48.42;;;3.00;93.80;;;;;;4993438;28;20041;-75
2022/01/25 06:17:36;;;;;;;104.32;47.70;;;3.00;93.90;;;;;;4991461;28;20034;-75
2022/01/25 06:20:02;;;;;;;105.53;47.72;;;3.00;93.90;;;;;;4987213;28;20049;-75
2022/01/25 06:22:28;;;;;;;116.05;48.97;;;3.00;94.00;;;;;;4991961;28;20036;-75
2022/01/25 06:24:53;;;;;;;110.78;49.22;;;3.00;94.10;;;;;;4988798;28;20021;-75
2022/01/25 06:27:19;;;;;;;111.47;50.40;;;3.00;94.10;;;;;;4991305;28;20045;-75
2022/01/25 06:29:45;;;;;;;107.80;48.33;;;3.00;94.20;;;;;;4980069;28;20042;-75
2022/01/25 06:32:10;;;;;;;114.35;49.90;;;3.00;94.20;;;;;;4990472;28;20022;-75
2022/01/25 06:34:36;;;;;;;110.32;49.05;;;3.00;94.30;;;;;;4980207;28;20022;-75
2022/01/25 06:37:02;;;;;;;108.53;47.25;;;3.00;94.30;;;;;;4985868;28;20170;-75
2022/01/25 06:39:28;;;;;;;111.30;47.92;;;3.00;94.40;;;;;;4989543;28;20034;-75
2022/01/25 06:41:53;;;;;;;112.57;49.60;;;3.00;94.40;;;;;;4987546;28;20036;-74
2022/01/25 06:44:19;;;;;;;113.50;49.15;;;3.00;94.50;;;;;;4988825;28;20048;-74
2022/01/25 06:46:46;;;;;;;109.18;49.53;;;3.00;94.50;;;;;;4974090;28;20031;-74
2022/01/25 06:49:13;;;;;;;109.57;47.47;;;3.00;94.50;;;;;;4988326;28;20484;-75
2022/01/25 06:51:39;;;;;;;113.82;50.92;;;3.00;94.50;;;;;;4987668;28;20026;-75
2022/01/25 06:54:05;;;;;;;107.32;47.90;;;3.00;94.40;;;;;;4985985;28;20046;-75
2022/01/25 06:56:30;;;;;;;118.25;49.80;;;3.00;94.40;;;;;;4990617;28;20085;-75
2022/01/25 06:58:56;;;;;;;100.13;46.17;;;3.00;94.40;;;;;;4988873;28;20458;-74
2022/01/25 07:01:21;;;;;;;108.70;47.28;;;3.00;94.50;;;;;;4975622;28;20101;-74
2022/01/25 07:03:47;;;;;;;103.60;48.03;;;3.00;94.40;;;;;;4982256;28;20422;-74
2022/01/25 07:06:12;;;;;;;118.30;49.15;;;3.00;94.40;;;;;;4973192;28;20085;-75
2022/01/25 07:08:38;;;;;;;113.95;48.75;;;3.00;94.30;;;;;;4981752;28;20030;-75
2022/01/25 07:11:04;;;;;;;101.72;46.58;;;3.00;94.30;;;;;;4988409;28;20065;-75
2022/01/25 07:13:29;;;;;;;109.30;48.65;;;3.00;94.40;;;;;;4983451;28;20077;-75
2022/01/25 07:15:55;;;;;;;113.63;48.55;;;3.00;94.50;;;;;;4990358;28;20042;-75
2022/01/25 07:18:20;;;;;;;114.15;50.00;;;3.00;94.50;;;;;;4989922;28;20032;-75
2022/01/25 07:20:46;;;;;;;104.47;46.88;;;3.00;94.50;;;;;;4990473;28;20105;-74
2022/01/25 07:23:11;;;;;;;106.55;47.05;;;3.10;94.50;;;;;;4990350;28;20118;-75
2022/01/25 07:25:37;;;;;;;100.78;47.35;;;3.10;94.50;;;;;;4990110;28;20026;-75
2022/01/25 07:28:02;;;;;;;114.72;48.40;;;3.00;94.40;;;;;;4988208;28;20046;-75
2022/01/25 07:30:28;;;;;;;108.13;47.55;;;3.10;94.50;;;;;;4983673;28;20030;-75
2022/01/25 07:32:53;;;;;;;109.28;49.20;;;3.00;94.50;;;;;;4971940;28;20049;-75
2022/01/25 07:35:19;;;;;;;103.95;48.17;;;3.10;94.60;;;;;;4984264;28;20034;-75
2022/01/25 07:37:45;;;;;;;109.38;47.90;;;3.10;94.60;;;;;;4989960;28;20014;-74
2022/01/25 07:40:12;;;;;;;109.72;47.88;;;3.10;94.60;;;;;;4989314;28;20516;-75
2022/01/25 07:42:39;;;;;;;109.70;48.30;;;3.10;94.70;;;;;;4988303;28;20026;-75
2022/01/25 07:45:09;;;;;;;106.88;46.67;;;3.10;94.70;;;;;;4988149;28;20130;-74
2022/01/25 07:47:38;;;;;;;115.28;48.95;;;3.10;94.70;;;;;;4996026;28;20026;-74
2022/01/25 07:50:05;;;;;;;112.55;48.67;;;3.10;94.70;;;;;;4973736;28;20411;-75
2022/01/25 07:52:31;;;;;;;115.85;48.92;;;3.10;94.70;;;;;;4983396;28;20023;-75
2022/01/25 07:54:56;;;;;;;104.68;47.42;;;3.10;94.70;;;;;;4988880;28;20500;-74
2022/01/25 07:57:22;;;;;;;111.05;48.15;;;3.10;94.80;;;;;;4985565;28;20074;-74
2022/01/25 07:59:47;;;;;;;109.15;48.10;;;3.10;94.80;;;;;;4986942;28;20034;-75
2022/01/25 08:02:16;;;;;;;111.38;46.72;;;3.10;94.80;;;;;;4974791;28;20324;-75
2022/01/25 08:04:42;;;;;;;108.93;48.08;;;3.10;94.90;;;;;;4986312;28;20358;-75
2022/01/25 08:07:07;;;;;;;110.55;47.20;;;3.10;94.90;;;;;;4990079;28;20027;-75
2022/01/25 08:09:33;;;;;;;114.45;47.47;;;3.10;94.80;;;;;;4989489;28;20112;-75
2022/01/25 08:11:58;;;;;;;109.18;49.35;;;3.10;94.90;;;;;;4984257;28;20036;-74
2022/01/25 08:14:24;;;;;;;102.95;45.38;;;3.10;94.80;;;;;;4982570;28;20051;-75
2022/01/25 08:16:56;;;;;;;101.97;46.88;;;3.20;94.80;;;;;;4983975;28;20018;-74
2022/01/25 08:19:21;;;;;;;108.93;45.92;;;3.20;94.90;;;;;;4991045;28;20038;-74
2022/01/25 08:21:48;;;;;;;108.90;48.38;;;3.20;94.90;;;;;;4985495;28;20036;-75
2022/01/25 08:24:18;;;;;;;107.93;44.83;;;3.20;94.90;;;;;;5005030;28;20056;-75
2022/01/25 08:26:44;;;;;;;117.15;47.17;;;3.20;94.90;;;;;;5008391;28;20056;-75
2022/01/25 08:29:09;;;;;;;109.22;46.55;;;3.20;95.00;;;;;;4992674;28;20026;-75
2022/01/25 08:31:36;;;;;;;102.90;46.22;;;3.10;95.00;;;;;;4987955;28;20045;-76
2022/01/25 08:34:01;;;;;;;106.50;46.72;;;3.20;95.10;;;;;;4991773;28;20117;-75
2022/01/25 08:36:27;;;;;;;103.13;46.35;;;3.30;95.10;;;;;;4985982;28;20153;-74
2022/01/25 08:38:53;;;;;;;112.10;46.17;;;3.30;95.20;;;;;;4987352;28;20490;-75
2022/01/25 08:41:20;;;;;;;106.72;46.40;;;3.20;95.10;;;;;;4984657;28;20436;-74
2022/01/25 08:43:46;;;;;;;102.65;45.67;;;3.20;95.20;;;;;;4993646;28;20033;-74
2022/01/25 08:46:12;;;;;;;105.03;45.22;;;3.30;95.10;;;;;;5004450;28;20107;-74
2022/01/25 08:48:38;;;;;;;101.03;44.58;;;3.30;95.10;;;;;;4992331;28;20030;-74
2022/01/25 08:51:04;;;;;;;106.63;46.28;;;3.30;95.10;;;;;;4993318;28;20025;-74
2022/01/25 08:53:30;;;;;;;98.72;45.15;;;3.30;95.10;;;;;;4989918;28;20105;-74
2022/01/25 08:55:56;;;;;;;104.97;47.25;;;3.40;95.10;;;;;;4992969;28;20176;-75
2022/01/25 08:58:21;;;;;;;103.93;44.35;;;3.40;95.00;;;;;;4990935;28;20133;-75
2022/01/25 09:00:47;;;;;;;98.35;44.78;;;3.40;95.00;;;;;;4988035;28;20027;-74
2022/01/25 09:03:12;;;;;;;95.05;44.38;;;3.40;95.00;;;;;;4986083;28;20023;-74
2022/01/25 09:05:38;;;;;;;104.28;44.75;;;3.50;94.90;;;;;;4990860;28;20378;-74
2022/01/25 09:08:05;;;;;;;92.40;44.42;;;3.50;94.90;;;;;;4990550;28;20034;-75
2022/01/25 09:10:32;;;;;;;96.97;44.08;;;3.50;94.80;;;;;;4991649;28;20033;-75
2022/01/25 09:12:58;;;;;;;98.57;43.45;;;3.50;94.80;;;;;;4988054;28;20022;-74
2022/01/25 09:15:24;;;;;;;91.85;44.22;;;3.60;94.80;;;;;;4989871;28;20429;-74
2022/01/25 09:17:50;;;;;;;97.72;44.28;;;3.60;94.90;;;;;;4991944;28;20030;-74
2022/01/25 09:20:16;;;;;;;94.90;43.55;;;3.60;94.90;;;;;;4986268;28;20037;-75
2022/01/25 09:22:41;;;;;;;93.72;44.13;;;3.60;94.80;;;;;;4986075;28;20035;-75
2022/01/25 09:25:09;;;;;;;100.35;44.40;;;3.70;94.90;;;;;;4990525;28;20462;-75
2022/01/25 09:27:34;;;;;;;94.13;45.47;;;3.70;94.80;;;;;;4990838;28;20037;-75
2022/01/25 09:30:00;;;;;;;94.40;42.63;;;3.70;94.90;;;;;;4989849;28;20881;-75
2022/01/25 09:32:25;;;;;;;101.25;44.90;;;3.70;94.90;;;;;;4997496;28;20041;-75
2022/01/25 09:34:51;;;;;;;101.20;47.00;;;3.70;94.90;;;;;;4984667;28;20038;-75
2022/01/25 09:37:17;;;;;;;95.30;43.90;;;3.60;94.90;;;;;;4979741;28;20037;-74
2022/01/25 09:39:43;;;;;;;101.82;46.15;;;3.60;95.00;;;;;;4990229;28;20038;-74
2022/01/25 09:42:10;;;;;;;129.95;66.82;;;3.70;95.20;;;;;;4994795;28;20581;-74
2022/01/25 09:44:36;;;;;;;100.30;44.13;;;3.60;95.10;;;;;;4990727;28;20125;-74
2022/01/25 09:47:02;;;;;;;95.88;42.65;;;3.60;95.20;;;;;;4990142;28;20425;-74
2022/01/25 09:49:28;;;;;;;101.80;42.67;;;3.60;95.30;;;;;;4986157;28;20054;-75
2022/01/25 09:51:56;;;;;;;97.03;43.40;;;3.60;95.40;;;;;;4991942;28;20041;-75
2022/01/25 09:54:21;;;;;;;88.28;41.45;;;3.60;95.50;;;;;;4990591;28;20057;-74
2022/01/25 09:56:47;;;;;;;93.20;41.40;;;3.70;95.50;;;;;;4989977;28;20057;-75
2022/01/25 09:59:12;;;;;;;98.05;41.10;;;3.70;95.60;;;;;;4977585;28;20386;-74
2022/01/25 10:01:38;;;;;;;93.40;40.65;;;3.80;95.60;;;;;;4995468;28;20032;-74
2022/01/25 10:04:23;;;;;;;96.18;41.80;;;3.90;95.60;;;;;;4999076;28;20099;-74
2022/01/25 10:06:50;;;;;;;84.35;39.28;;;3.80;95.60;;;;;;4981262;28;20049;-75
2022/01/25 10:09:15;;;;;;;85.30;38.33;;;3.80;95.60;;;;;;4991172;28;20118;-75
2022/01/25 10:11:41;;;;;;;91.32;40.40;;;3.90;95.50;;;;;;5001704;28;20101;-75
2022/01/25 10:14:07;;;;;;;82.70;40.25;;;3.90;95.40;;;;;;4994467;28;20072;-74
2022/01/25 10:16:35;;;;;;;87.28;39.17;;;4.00;95.50;;;;;;4990418;28;20085;-75
2022/01/25 10:19:04;;;;;;;88.43;39.85;;;4.10;95.60;;;;;;4978483;28;20471;-75
2022/01/25 10:21:33;;;;;;;81.28;39.05;;;4.10;95.40;;;;;;4980205;28;20125;-75
2022/01/25 10:24:14;;;;;;;87.57;38.78;;;4.10;95.50;;;;;;4990766;28;20033;-75
2022/01/25 10:27:01;;;;;;;86.35;38.75;;;4.10;95.40;;;;;;4990065;28;20033;-74
2022/01/25 10:29:34;;;;;;;84.30;38.80;;;4.00;95.20;;;;;;4978021;28;20030;-75
2022/01/25 10:32:09;;;;;;;87.63;37.15;;;4.10;95.50;;;;;;4987972;28;20540;-75
2022/01/25 10:34:39;;;;;;;90.40;39.35;;;4.20;95.50;;;;;;4985920;28;20457;-74
2022/01/25 10:37:10;;;;;;;86.90;37.80;;;4.20;95.50;;;;;;4988781;28;20466;-75
2022/01/25 10:39:39;;;;;;;81.45;36.47;;;4.20;95.40;;;;;;4985834;28;20030;-74
2022/01/25 10:42:11;;;;;;;76.53;37.03;;;4.20;95.40;;;;;;4990001;28;20423;-74
2022/01/25 10:45:13;;;;;;;82.40;36.70;;;4.20;95.30;;;;;;4985852;28;20035;-75
2022/01/25 10:47:49;;;;;;;;;;;4.30;95.50;;;;;;4985592;28;20034;-75
2022/01/25 10:50:18;;;;;;;75.25;33.17;;;4.30;95.40;;;;;;4988185;28;19913;-75
2022/01/25 10:52:44;;;;;;;79.35;35.47;;;4.30;95.20;;;;;;4985240;28;20050;-75
2022/01/25 10:55:10;;;;;;;78.43;35.75;;;4.30;95.30;;;;;;4986806;28;20038;-75
2022/01/25 10:57:38;;;;;;;81.65;35.50;;;4.20;95.20;;;;;;4983147;28;20039;-75
2022/01/25 11:00:10;;;;;;;74.45;36.22;;;4.30;95.30;;;;;;4989665;28;20034;-75
2022/01/25 11:02:47;;;;;;;81.63;36.00;;;4.30;95.30;;;;;;4983737;28;20324;-75
2022/01/25 11:05:13;;;;;;;76.40;35.45;;;4.30;95.30;;;;;;4982106;28;20111;-74
2022/01/25 11:07:44;;;;;;;72.53;34.63;;;4.30;95.30;;;;;;4989804;28;20105;-74
2022/01/25 11:10:13;;;;;;;;;;;4.40;95.40;;;;;;4987992;28;20489;-74
2022/01/25 11:12:46;;;;;;;72.57;33.03;;;4.50;95.50;;;;;;4991577;28;19902;-74
2022/01/25 11:15:12;;;;;;;71.65;34.72;;;4.50;95.20;;;;;;4990303;28;20565;-74
2022/01/25 11:17:39;;;;;;;73.43;35.40;;;4.50;95.30;;;;;;4990911;28;20104;-74
2022/01/25 11:20:06;;;;;;;71.97;34.08;;;4.40;95.30;;;;;;4990153;28;20084;-74
2022/01/25 11:22:33;;;;;;;70.65;35.05;;;4.40;95.40;;;;;;4990071;28;20057;-74
2022/01/25 11:25:02;;;;;;;70.45;33.28;;;4.30;95.30;;;;;;4984894;28;20023;-74
2022/01/25 11:27:30;;;;;;;72.47;33.38;;;4.40;95.50;;;;;;4992291;28;20034;-74
2022/01/25 11:29:58;;;;;;;68.28;32.33;;;4.50;95.60;;;;;;4991912;28;20022;-74
2022/01/25 11:32:28;;;;;;;81.00;34.13;;;4.40;95.60;;;;;;5001969;28;20365;-74
2022/01/25 11:34:55;;;;;;;70.45;32.08;;;4.40;95.70;;;;;;4990865;28;20080;-74
2022/01/25 11:37:40;;;;;;;67.55;32.20;;;4.50;95.80;;;;;;4986516;28;20026;-75
2022/01/25 11:40:22;;;;;;;70.45;33.17;;;4.50;95.90;;;;;;4986408;28;20485;-74
2022/01/25 11:42:50;;;;;;;72.10;32.95;;;4.50;95.80;;;;;;4992061;28;20036;-74
2022/01/25 11:45:20;;;;;;;71.18;32.25;;;4.60;95.90;;;;;;4990020;28;20395;-74
2022/01/25 11:47:48;;;;;;;67.68;31.73;;;4.60;96.00;;;;;;4990227;28;20030;-74
2022/01/25 11:50:15;;;;;;;69.68;31.35;;;4.50;95.60;;;;;;5005229;28;20030;-74
2022/01/25 11:52:52;;;;;;;63.50;31.08;;;4.50;95.80;;;;;;4989086;28;20069;-75
2022/01/25 11:55:25;;;;;;;68.65;32.03;;;4.60;95.80;;;;;;4989566;28;20081;-74
2022/01/25 11:58:04;;;;;;;63.33;29.83;;;4.60;95.70;;;;;;4987288;28;20037;-74
2022/01/25 12:00:49;;;;;;;67.70;32.17;;;4.60;95.60;;;;;;4991206;28;20026;-74
2022/01/25 12:03:30;;;;;;;63.35;30.67;;;4.60;95.60;;;;;;4977782;28;20106;-74
2022/01/25 12:06:05;;;;;;;61.08;30.02;;;4.50;95.70;;;;;;4978686;28;20082;-74
2022/01/25 12:08:49;;;;;;;62.47;29.38;;;4.50;95.80;;;;;;4989530;28;20022;-74
2022/01/25 12:11:25;;;;;;;64.78;30.58;;;4.50;96.00;;;;;;4982625;28;20104;-74
2022/01/25 12:14:18;;;;;;;63.17;29.30;;;4.50;96.20;;;;;;4988280;28;20485;-75
2022/01/25 12:16:54;;;;;;;62.97;28.23;;;4.50;96.20;;;;;;4985590;28;20140;-75
2022/01/25 12:19:32;;;;;;;60.30;29.45;;;4.50;96.20;;;;;;4978604;28;20074;-75
2022/01/25 12:22:07;;;;;;;62.10;28.40;;;4.50;96.40;;;;;;4984340;28;20038;-75
2022/01/25 12:24:52;;;;;;;64.97;29.23;;;4.50;96.30;;;;;;4976585;28;20033;-75
2022/01/25 12:27:40;;;;;;;60.15;28.52;;;4.60;96.50;;;;;;4979508;28;20304;-75
2022/01/25 12:30:12;;;;;;;64.88;29.00;;;4.60;96.50;;;;;;4980746;28;20031;-77
2022/01/25 12:33:00;;;;;;;62.47;26.58;;;4.60;96.30;;;;;;4985056;28;20455;-76
2022/01/25 12:35:40;;;;;;;57.67;27.85;;;4.60;96.20;;;;;;4980509;28;20393;-74
2022/01/25 12:38:08;;;;;;;54.60;25.88;;;4.50;96.40;;;;;;4982368;28;20043;-74
2022/01/25 12:40:42;;;;;;;61.95;27.88;;;4.50;96.40;;;;;;4976508;28;20050;-74
2022/01/25 12:43:22;;;;;;;62.15;27.60;;;4.60;96.60;;;;;;4981742;28;20034;-75
2022/01/25 12:46:00;;;;;;;62.10;28.02;;;4.60;96.50;;;;;;4983528;28;20434;-75
2022/01/25 12:48:30;;;;;;;65.15;27.65;;;4.60;96.60;;;;;;4980820;28;20474;-75
2022/01/25 12:50:58;;;;;;;63.70;28.23;;;4.60;96.50;;;;;;4988296;28;20029;-75
2022/01/25 12:53:27;;;;;;;63.13;29.08;;;4.60;96.50;;;;;;4987867;28;20132;-75
2022/01/25 12:55:56;;;;;;;68.78;28.77;;;4.50;96.60;;;;;;4987879;28;20018;-75
2022/01/25 12:58:24;;;;;;;60.47;28.05;;;4.70;96.70;;;;;;4987105;28;20384;-75
2022/01/25 13:00:53;;;;;;;66.07;29.73;;;4.60;96.50;;;;;;4986381;28;20369;-75
2022/01/25 13:03:34;;;;;;;66.80;27.33;;;4.70;96.60;;;;;;4988514;28;20018;-75
2022/01/25 13:06:12;;;;;;;60.00;27.35;;;4.70;96.40;;;;;;4989973;28;20030;-75
2022/01/25 13:08:52;;;;;;;64.72;29.35;;;4.60;96.40;;;;;;4984999;28;20055;-75
2022/01/25 13:11:21;;;;;;;67.90;28.60;;;4.70;96.40;;;;;;4990291;28;20111;-75
2022/01/25 13:16:43;;;;;;;61.38;27.10;;;4.60;96.40;;;;;;4991178;28;20487;-75
2022/01/25 13:19:10;;;;;;;59.00;27.00;;;4.60;96.40;;;;;;4992991;28;20175;-74
2022/01/25 13:21:44;;;;;;;60.70;26.58;;;4.60;96.50;;;;;;4990859;28;20096;-75
2022/01/25 13:24:15;;;;;;;60.83;26.70;;;4.60;96.50;;;;;;4990982;28;20058;-75
2022/01/25 13:26:53;;;;;;;57.78;24.83;;;4.70;96.50;;;;;;4990206;28;20033;-75
2022/01/25 13:32:24;;;;;;;58.17;23.42;;;4.70;96.60;;;;;;4990640;28;20033;-75
2022/01/25 13:35:13;;;;;;;55.38;24.83;;;4.70;96.60;;;;;;4989910;28;20524;-74
2022/01/25 13:37:39;;;;;;;59.08;25.25;;;4.70;96.60;;;;;;4991383;28;20048;-75
2022/01/25 13:40:05;;;;;;;59.17;25.15;;;4.70;96.70;;;;;;4991761;28;20458;-75
2022/01/25 13:48:09;;;;;;;60.28;24.75;;;4.60;96.70;;;;;;4978184;28;20054;-74
2022/01/25 13:50:36;;;;;;;;;;;4.60;96.80;;;;;;4982902;28;20353;-75
2022/01/25 13:53:03;;;;;;;52.75;23.55;;;4.60;96.80;;;;;;4984948;28;19933;-75
2022/01/25 13:55:29;;;;;;;56.60;24.08;;;4.60;96.80;;;;;;4991878;28;20570;-75
2022/01/25 13:57:55;;;;;;;58.42;26.15;;;4.60;96.90;;;;;;4988091;28;20149;-74
2022/01/25 14:00:22;;;;;;;74.25;32.67;;;4.60;97.00;;;;;;4989992;28;20100;-75
2022/01/25 14:02:50;;;;;;;76.20;35.00;;;4.60;97.00;;;;;;4997173;28;20030;-75
2022/01/25 14:05:16;;;;;;;80.13;32.70;;;4.60;97.00;;;;;;4991511;28;20026;-74
2022/01/25 14:07:42;;;;;;;71.50;29.20;;;4.60;97.10;;;;;;4981266;28;20508;-75
2022/01/25 14:10:10;;;;;;;65.00;25.65;;;4.60;97.10;;;;;;4986902;28;20030;-74
2022/01/25 14:23:45;;;;;;;60.78;26.15;;;4.60;97.10;;;;;;4986010;28;20476;-75
2022/01/25 14:26:11;;;;;;;56.85;26.20;;;4.60;97.20;;;;;;4989635;28;20134;-76
2022/01/25 14:28:41;;;;;;;63.10;25.48;;;4.60;97.10;;;;;;4990028;28;20477;-74
2022/01/25 14:31:15;;;;;;;54.43;23.63;;;4.60;97.20;;;;;;5000882;28;20021;-74
2022/01/25 14:33:52;;;;;;;53.50;23.83;;;4.60;97.20;;;;;;4971617;28;20278;-74
2022/01/25 14:36:19;;;;;;;54.28;21.70;;;4.60;97.20;;;;;;4988265;28;20458;-74
2022/01/25 14:38:47;;;;;;;44.63;20.35;;;4.60;97.20;;;;;;4978982;28;20026;-75
2022/01/25 14:41:17;;;;;;;48.78;20.08;;;4.50;97.10;;;;;;4990215;28;20023;-75
2022/01/25 14:43:49;;;;;;;50.83;21.10;;;4.50;97.20;;;;;;4990563;28;20037;-74
2022/01/25 14:46:20;;;;;;;47.10;20.83;;;4.60;97.30;;;;;;4981716;28;20022;-74
2022/01/25 14:49:29;;;;;;;44.67;20.33;;;4.60;97.20;;;;;;4990196;28;20061;-75